sensor_id;sensor_type;location;lat;lon;timestamp;temperature;humidity
7564;DHT22;3823;53.586;10.040;2022-12-16T00:02:00;-0.50;99.90
7564;DHT22;3823;53.586;10.040;2022-12-16T00:04:25;-0.60;99.90
7564;DHT22;3823;53.586;10.040;2022-12-16T00:06:51;-0.60;99.90
7564;DHT22;3823;53.586;10.040;2022-12-16T00:09:16;-0.60;99.90
7564;DHT22;3823;53.586;10.040;2022-12-16T00:11:42;-0.60;99.90
7564;DHT22;3823;53.586;10.040;2022-12-16T00:14:07;-0.60;99.90
7564;DHT22;3823;53.586;10.040;2022-12-16T00:16:33;-0.70;99.90
7564;DHT22;3823;53.586;10.040;2022-12-16T00:18:59;-0.70;99.90
7564;DHT22;3823;53.586;10.040;2022-12-16T00:21:24;-0.60;99.90
7564;DHT22;3823;53.586;10.040;2022-12-16T00:23:54;-0.60;99.90
7564;DHT22;3823;53.586;10.040;2022-12-16T00:26:20;-0.60;99.90
7564;DHT22;3823;53.586;10.040;2022-12-16T00:28:46;-0.50;99.90
7564;DHT22;3823;53.586;10.040;2022-12-16T00:31:11;-0.50;99.90
7564;DHT22;3823;53.586;10.040;2022-12-16T00:33:37;-0.60;99.90
7564;DHT22;3823;53.586;10.040;2022-12-16T00:36:03;-0.60;99.90
7564;DHT22;3823;53.586;10.040;2022-12-16T00:38:28;-0.50;99.90
7564;DHT22;3823;53.586;10.040;2022-12-16T00:40:54;-0.50;99.90
7564;DHT22;3823;53.586;10.040;2022-12-16T00:43:19;-0.50;99.90
7564;DHT22;3823;53.586;10.040;2022-12-16T00:45:45;-0.60;99.90
7564;DHT22;3823;53.586;10.040;2022-12-16T00:48:11;-0.70;99.90
7564;DHT22;3823;53.586;10.040;2022-12-16T00:50:37;-0.60;99.90
7564;DHT22;3823;53.586;10.040;2022-12-16T00:53:04;-0.60;99.90
7564;DHT22;3823;53.586;10.040;2022-12-16T00:55:30;-0.70;99.90
7564;DHT22;3823;53.586;10.040;2022-12-16T00:57:57;-0.60;99.90
7564;DHT22;3823;53.586;10.040;2022-12-16T01:00:22;-0.60;99.90
7564;DHT22;3823;53.586;10.040;2022-12-16T01:02:48;-0.60;99.90
7564;DHT22;3823;53.586;10.040;2022-12-16T01:05:16;-0.60;99.90
7564;DHT22;3823;53.586;10.040;2022-12-16T01:07:43;-0.70;99.90
7564;DHT22;3823;53.586;10.040;2022-12-16T01:10:10;-0.70;99.90
7564;DHT22;3823;53.586;10.040;2022-12-16T01:12:36;-0.70;99.90
7564;DHT22;3823;53.586;10.040;2022-12-16T01:15:03;-0.60;99.90
7564;DHT22;3823;53.586;10.040;2022-12-16T01:17:28;-0.60;99.90
7564;DHT22;3823;53.586;10.040;2022-12-16T01:19:54;-0.60;99.90
7564;DHT22;3823;53.586;10.040;2022-12-16T01:22:21;-0.60;99.90
7564;DHT22;3823;53.586;10.040;2022-12-16T01:24:47;-0.70;99.90
7564;DHT22;3823;53.586;10.040;2022-12-16T01:27:13;-0.70;99.90
7564;DHT22;3823;53.586;10.040;2022-12-16T01:29:38;-0.70;99.90
7564;DHT22;3823;53.586;10.040;2022-12-16T01:32:04;-0.70;99.90
7564;DHT22;3823;53.586;10.040;2022-12-16T01:34:31;-0.70;99.90
7564;DHT22;3823;53.586;10.040;2022-12-16T01:36:56;-0.60;99.90
7564;DHT22;3823;53.586;10.040;2022-12-16T01:39:22;-0.60;99.90
7564;DHT22;3823;53.586;10.040;2022-12-16T01:41:47;-0.50;99.90
7564;DHT22;3823;53.586;10.040;2022-12-16T01:44:14;-0.60;99.90
7564;DHT22;3823;53.586;10.040;2022-12-16T01:46:41;-0.60;99.90
7564;DHT22;3823;53.586;10.040;2022-12-16T01:49:15;-0.70;99.90
7564;DHT22;3823;53.586;10.040;2022-12-16T01:51:45;-0.70;99.90
7564;DHT22;3823;53.586;10.040;2022-12-16T01:54:19;-0.70;99.90
7564;DHT22;3823;53.586;10.040;2022-12-16T01:56:50;-0.70;99.90
7564;DHT22;3823;53.586;10.040;2022-12-16T01:59:17;-0.70;99.90
7564;DHT22;3823;53.586;10.040;2022-12-16T02:01:44;-0.70;99.90
7564;DHT22;3823;53.586;10.040;2022-12-16T02:04:10;-0.70;99.90
7564;DHT22;3823;53.586;10.040;2022-12-16T02:06:36;-0.70;99.90
7564;DHT22;3823;53.586;10.040;2022-12-16T02:09:05;-0.60;99.90
7564;DHT22;3823;53.586;10.040;2022-12-16T02:11:49;-0.60;99.90
7564;DHT22;3823;53.586;10.040;2022-12-16T02:26:21;-0.50;99.90
7564;DHT22;3823;53.586;10.040;2022-12-16T02:31:42;-0.40;99.90
7564;DHT22;3823;53.586;10.040;2022-12-16T02:39:36;-0.40;99.90
7564;DHT22;3823;53.586;10.040;2022-12-16T02:42:15;-0.50;99.90
7564;DHT22;3823;53.586;10.040;2022-12-16T02:47:14;-0.70;99.90
7564;DHT22;3823;53.586;10.040;2022-12-16T02:49:51;-0.70;99.90
7564;DHT22;3823;53.586;10.040;2022-12-16T02:52:20;-0.70;99.90
7564;DHT22;3823;53.586;10.040;2022-12-16T02:54:48;-0.70;99.90
7564;DHT22;3823;53.586;10.040;2022-12-16T03:00:09;-0.60;99.90
7564;DHT22;3823;53.586;10.040;2022-12-16T03:02:52;-0.70;99.90
7564;DHT22;3823;53.586;10.040;2022-12-16T03:07:48;-0.70;99.90
7564;DHT22;3823;53.586;10.040;2022-12-16T03:10:17;-0.70;99.90
7564;DHT22;3823;53.586;10.040;2022-12-16T03:12:44;-0.70;99.90
7564;DHT22;3823;53.586;10.040;2022-12-16T03:15:17;-0.70;99.90
7564;DHT22;3823;53.586;10.040;2022-12-16T03:17:45;-0.70;99.90
7564;DHT22;3823;53.586;10.040;2022-12-16T03:20:18;-0.80;99.90
7564;DHT22;3823;53.586;10.040;2022-12-16T03:22:47;-0.80;99.90
7564;DHT22;3823;53.586;10.040;2022-12-16T03:25:17;-0.90;99.90
7564;DHT22;3823;53.586;10.040;2022-12-16T03:28:02;-1.00;99.90
7564;DHT22;3823;53.586;10.040;2022-12-16T03:30:35;-1.00;99.90
7564;DHT22;3823;53.586;10.040;2022-12-16T03:33:23;-1.00;99.90
7564;DHT22;3823;53.586;10.040;2022-12-16T03:35:55;-1.10;99.90
7564;DHT22;3823;53.586;10.040;2022-12-16T03:38:23;-1.10;99.90
7564;DHT22;3823;53.586;10.040;2022-12-16T03:40:51;-1.20;99.90
7564;DHT22;3823;53.586;10.040;2022-12-16T03:43:17;-1.20;99.90
7564;DHT22;3823;53.586;10.040;2022-12-16T03:45:44;-1.10;99.90
7564;DHT22;3823;53.586;10.040;2022-12-16T03:48:12;-1.10;99.90
7564;DHT22;3823;53.586;10.040;2022-12-16T03:50:38;-1.10;99.90
7564;DHT22;3823;53.586;10.040;2022-12-16T03:53:05;-1.20;99.90
7564;DHT22;3823;53.586;10.040;2022-12-16T03:55:31;-1.10;99.90
7564;DHT22;3823;53.586;10.040;2022-12-16T03:57:57;-1.10;99.90
7564;DHT22;3823;53.586;10.040;2022-12-16T04:00:23;-1.10;99.90
7564;DHT22;3823;53.586;10.040;2022-12-16T04:02:49;-1.20;99.90
7564;DHT22;3823;53.586;10.040;2022-12-16T04:05:14;-1.20;99.90
7564;DHT22;3823;53.586;10.040;2022-12-16T04:07:40;-1.20;99.90
7564;DHT22;3823;53.586;10.040;2022-12-16T04:10:06;-1.10;99.90
7564;DHT22;3823;53.586;10.040;2022-12-16T04:12:32;-1.20;99.90
7564;DHT22;3823;53.586;10.040;2022-12-16T04:15:16;-1.20;99.90
7564;DHT22;3823;53.586;10.040;2022-12-16T04:18:00;-1.20;99.90
7564;DHT22;3823;53.586;10.040;2022-12-16T04:20:53;-1.30;99.90
7564;DHT22;3823;53.586;10.040;2022-12-16T04:23:49;-1.20;99.90
7564;DHT22;3823;53.586;10.040;2022-12-16T04:26:34;-1.20;99.90
7564;DHT22;3823;53.586;10.040;2022-12-16T04:29:18;-1.10;99.90
7564;DHT22;3823;53.586;10.040;2022-12-16T04:31:44;-1.20;99.90
7564;DHT22;3823;53.586;10.040;2022-12-16T04:34:10;-1.10;99.90
7564;DHT22;3823;53.586;10.040;2022-12-16T04:37:00;-1.20;99.90
7564;DHT22;3823;53.586;10.040;2022-12-16T04:39:45;-1.10;99.90
7564;DHT22;3823;53.586;10.040;2022-12-16T04:42:30;-1.20;99.90
7564;DHT22;3823;53.586;10.040;2022-12-16T04:45:14;-1.20;99.90
7564;DHT22;3823;53.586;10.040;2022-12-16T04:47:58;-1.20;99.90
7564;DHT22;3823;53.586;10.040;2022-12-16T04:50:43;-1.20;99.90
7564;DHT22;3823;53.586;10.040;2022-12-16T04:53:27;-1.20;99.90
7564;DHT22;3823;53.586;10.040;2022-12-16T04:56:12;-1.20;99.90
7564;DHT22;3823;53.586;10.040;2022-12-16T04:58:56;-1.20;99.90
7564;DHT22;3823;53.586;10.040;2022-12-16T05:01:40;-1.40;99.90
7564;DHT22;3823;53.586;10.040;2022-12-16T05:04:24;-1.50;99.90
7564;DHT22;3823;53.586;10.040;2022-12-16T05:07:08;-1.50;99.90
7564;DHT22;3823;53.586;10.040;2022-12-16T05:09:52;-1.60;99.90
7564;DHT22;3823;53.586;10.040;2022-12-16T05:12:36;-1.70;99.90
7564;DHT22;3823;53.586;10.040;2022-12-16T05:15:20;-1.80;99.90
7564;DHT22;3823;53.586;10.040;2022-12-16T05:18:12;-1.90;99.90
7564;DHT22;3823;53.586;10.040;2022-12-16T05:21:01;-1.90;99.90
7564;DHT22;3823;53.586;10.040;2022-12-16T05:23:46;-2.00;99.90
7564;DHT22;3823;53.586;10.040;2022-12-16T05:26:31;-2.00;99.90
7564;DHT22;3823;53.586;10.040;2022-12-16T05:29:15;-1.90;99.90
7564;DHT22;3823;53.586;10.040;2022-12-16T05:31:59;-1.90;99.90
7564;DHT22;3823;53.586;10.040;2022-12-16T05:34:43;-1.80;99.90
7564;DHT22;3823;53.586;10.040;2022-12-16T05:37:27;-1.80;99.90
7564;DHT22;3823;53.586;10.040;2022-12-16T05:40:11;-1.70;99.90
7564;DHT22;3823;53.586;10.040;2022-12-16T05:42:56;-1.70;99.90
7564;DHT22;3823;53.586;10.040;2022-12-16T05:45:40;-1.70;99.90
7564;DHT22;3823;53.586;10.040;2022-12-16T05:48:25;-1.80;99.90
7564;DHT22;3823;53.586;10.040;2022-12-16T05:51:29;-1.80;99.90
7564;DHT22;3823;53.586;10.040;2022-12-16T05:54:13;-1.70;99.90
7564;DHT22;3823;53.586;10.040;2022-12-16T05:56:58;-1.70;99.90
7564;DHT22;3823;53.586;10.040;2022-12-16T05:59:42;-1.70;99.90
7564;DHT22;3823;53.586;10.040;2022-12-16T06:02:26;-1.70;99.90
7564;DHT22;3823;53.586;10.040;2022-12-16T06:05:10;-1.70;99.90
7564;DHT22;3823;53.586;10.040;2022-12-16T06:07:54;-1.60;99.90
7564;DHT22;3823;53.586;10.040;2022-12-16T06:10:38;-1.60;99.90
7564;DHT22;3823;53.586;10.040;2022-12-16T06:13:22;-1.60;99.90
7564;DHT22;3823;53.586;10.040;2022-12-16T06:16:06;-1.60;99.90
7564;DHT22;3823;53.586;10.040;2022-12-16T06:18:51;-1.60;99.90
7564;DHT22;3823;53.586;10.040;2022-12-16T06:21:35;-1.60;99.90
7564;DHT22;3823;53.586;10.040;2022-12-16T06:24:19;-1.60;99.90
7564;DHT22;3823;53.586;10.040;2022-12-16T06:27:03;-1.60;99.90
7564;DHT22;3823;53.586;10.040;2022-12-16T06:29:47;-1.60;99.90
7564;DHT22;3823;53.586;10.040;2022-12-16T06:32:31;-1.60;99.90
7564;DHT22;3823;53.586;10.040;2022-12-16T06:35:15;-1.60;99.90
7564;DHT22;3823;53.586;10.040;2022-12-16T06:37:59;-1.60;99.90
7564;DHT22;3823;53.586;10.040;2022-12-16T06:40:44;-1.60;99.90
7564;DHT22;3823;53.586;10.040;2022-12-16T06:43:28;-1.70;99.90
7564;DHT22;3823;53.586;10.040;2022-12-16T06:46:12;-1.70;99.90
7564;DHT22;3823;53.586;10.040;2022-12-16T06:48:56;-1.60;99.90
7564;DHT22;3823;53.586;10.040;2022-12-16T06:51:40;-1.60;99.90
7564;DHT22;3823;53.586;10.040;2022-12-16T06:54:24;-1.60;99.90
7564;DHT22;3823;53.586;10.040;2022-12-16T06:57:08;-1.60;99.90
7564;DHT22;3823;53.586;10.040;2022-12-16T06:59:52;-1.50;99.90
7564;DHT22;3823;53.586;10.040;2022-12-16T07:02:36;-1.50;99.90
7564;DHT22;3823;53.586;10.040;2022-12-16T07:05:20;-1.50;99.90
7564;DHT22;3823;53.586;10.040;2022-12-16T07:08:05;-1.50;99.90
7564;DHT22;3823;53.586;10.040;2022-12-16T07:10:48;-1.50;99.90
7564;DHT22;3823;53.586;10.040;2022-12-16T07:13:32;-1.40;99.90
7564;DHT22;3823;53.586;10.040;2022-12-16T07:16:16;-1.40;99.90
7564;DHT22;3823;53.586;10.040;2022-12-16T07:19:00;-1.40;99.90
7564;DHT22;3823;53.586;10.040;2022-12-16T07:21:44;-1.40;99.90
7564;DHT22;3823;53.586;10.040;2022-12-16T07:24:29;-1.40;99.90
7564;DHT22;3823;53.586;10.040;2022-12-16T07:27:12;-1.40;99.90
7564;DHT22;3823;53.586;10.040;2022-12-16T07:29:57;-1.50;99.90
7564;DHT22;3823;53.586;10.040;2022-12-16T07:32:40;-1.50;99.90
7564;DHT22;3823;53.586;10.040;2022-12-16T07:35:25;-1.50;99.90
7564;DHT22;3823;53.586;10.040;2022-12-16T07:38:09;-1.50;99.90
7564;DHT22;3823;53.586;10.040;2022-12-16T07:40:53;-1.40;99.90
7564;DHT22;3823;53.586;10.040;2022-12-16T07:43:37;-1.40;99.90
7564;DHT22;3823;53.586;10.040;2022-12-16T07:46:21;-1.40;99.90
7564;DHT22;3823;53.586;10.040;2022-12-16T07:49:05;-1.50;99.90
7564;DHT22;3823;53.586;10.040;2022-12-16T07:51:49;-1.40;99.90
7564;DHT22;3823;53.586;10.040;2022-12-16T07:54:33;-1.50;99.90
7564;DHT22;3823;53.586;10.040;2022-12-16T07:57:17;-1.60;99.90
7564;DHT22;3823;53.586;10.040;2022-12-16T08:00:02;-1.50;99.90
7564;DHT22;3823;53.586;10.040;2022-12-16T08:02:52;-1.60;99.90
7564;DHT22;3823;53.586;10.040;2022-12-16T08:05:36;-1.70;99.90
7564;DHT22;3823;53.586;10.040;2022-12-16T08:08:20;-1.60;99.90
7564;DHT22;3823;53.586;10.040;2022-12-16T08:11:04;-1.70;99.90
7564;DHT22;3823;53.586;10.040;2022-12-16T08:13:48;-1.60;99.90
7564;DHT22;3823;53.586;10.040;2022-12-16T08:16:32;-1.50;99.90
7564;DHT22;3823;53.586;10.040;2022-12-16T08:19:16;-1.60;99.90
7564;DHT22;3823;53.586;10.040;2022-12-16T08:22:00;-1.50;99.90
7564;DHT22;3823;53.586;10.040;2022-12-16T08:24:44;-1.40;99.90
7564;DHT22;3823;53.586;10.040;2022-12-16T08:27:28;-1.40;99.90
7564;DHT22;3823;53.586;10.040;2022-12-16T08:30:12;-1.40;99.90
7564;DHT22;3823;53.586;10.040;2022-12-16T08:32:56;-1.30;99.90
7564;DHT22;3823;53.586;10.040;2022-12-16T08:35:40;-1.30;99.90
7564;DHT22;3823;53.586;10.040;2022-12-16T08:38:25;-1.20;99.90
7564;DHT22;3823;53.586;10.040;2022-12-16T08:41:09;-1.20;99.90
7564;DHT22;3823;53.586;10.040;2022-12-16T08:43:53;-1.10;99.90
7564;DHT22;3823;53.586;10.040;2022-12-16T08:46:37;-1.00;99.90
7564;DHT22;3823;53.586;10.040;2022-12-16T08:49:20;-1.00;99.90
7564;DHT22;3823;53.586;10.040;2022-12-16T08:52:05;-0.90;99.90
7564;DHT22;3823;53.586;10.040;2022-12-16T08:54:48;-0.90;99.90
7564;DHT22;3823;53.586;10.040;2022-12-16T08:57:33;-0.90;99.90
7564;DHT22;3823;53.586;10.040;2022-12-16T09:00:17;-0.90;99.90
7564;DHT22;3823;53.586;10.040;2022-12-16T09:03:01;-0.90;99.90
7564;DHT22;3823;53.586;10.040;2022-12-16T09:05:45;-1.00;99.90
7564;DHT22;3823;53.586;10.040;2022-12-16T09:08:30;-0.90;99.90
7564;DHT22;3823;53.586;10.040;2022-12-16T09:11:14;-0.90;99.90
7564;DHT22;3823;53.586;10.040;2022-12-16T09:13:59;-0.90;99.90
7564;DHT22;3823;53.586;10.040;2022-12-16T09:16:43;-0.90;99.90
7564;DHT22;3823;53.586;10.040;2022-12-16T09:19:28;-0.90;99.90
7564;DHT22;3823;53.586;10.040;2022-12-16T09:22:12;-1.00;99.90
7564;DHT22;3823;53.586;10.040;2022-12-16T09:24:55;-1.00;99.90
7564;DHT22;3823;53.586;10.040;2022-12-16T09:27:40;-1.00;99.90
7564;DHT22;3823;53.586;10.040;2022-12-16T09:30:23;-1.00;99.90
7564;DHT22;3823;53.586;10.040;2022-12-16T09:33:08;-1.00;99.90
7564;DHT22;3823;53.586;10.040;2022-12-16T09:35:52;-0.90;99.90
7564;DHT22;3823;53.586;10.040;2022-12-16T09:38:36;-1.00;99.90
7564;DHT22;3823;53.586;10.040;2022-12-16T09:41:43;-1.10;99.90
7564;DHT22;3823;53.586;10.040;2022-12-16T09:47:44;-1.00;99.90
7564;DHT22;3823;53.586;10.040;2022-12-16T09:50:30;-1.00;99.90
7564;DHT22;3823;53.586;10.040;2022-12-16T09:53:19;-1.00;99.90
7564;DHT22;3823;53.586;10.040;2022-12-16T09:56:13;-1.00;99.90
7564;DHT22;3823;53.586;10.040;2022-12-16T09:59:00;-0.90;99.90
7564;DHT22;3823;53.586;10.040;2022-12-16T10:01:46;-0.90;99.90
7564;DHT22;3823;53.586;10.040;2022-12-16T10:04:30;-0.90;99.90
7564;DHT22;3823;53.586;10.040;2022-12-16T10:07:28;-0.90;99.90
7564;DHT22;3823;53.586;10.040;2022-12-16T10:10:22;-1.00;99.90
7564;DHT22;3823;53.586;10.040;2022-12-16T10:13:36;-1.10;99.90
7564;DHT22;3823;53.586;10.040;2022-12-16T10:26:50;-1.00;99.90
7564;DHT22;3823;53.586;10.040;2022-12-16T10:29:19;-1.00;99.90
7564;DHT22;3823;53.586;10.040;2022-12-16T10:32:24;-1.00;99.90
7564;DHT22;3823;53.586;10.040;2022-12-16T10:35:35;-0.90;99.90
7564;DHT22;3823;53.586;10.040;2022-12-16T10:41:25;-0.20;99.90
7564;DHT22;3823;53.586;10.040;2022-12-16T10:44:30;0.00;99.90
7564;DHT22;3823;53.586;10.040;2022-12-16T10:47:15;-0.40;99.90
7564;DHT22;3823;53.586;10.040;2022-12-16T10:49:59;-0.70;99.90
7564;DHT22;3823;53.586;10.040;2022-12-16T10:52:50;-0.90;99.90
7564;DHT22;3823;53.586;10.040;2022-12-16T10:58:41;-0.90;99.90
7564;DHT22;3823;53.586;10.040;2022-12-16T11:01:28;-0.90;99.90
7564;DHT22;3823;53.586;10.040;2022-12-16T11:04:36;-0.90;99.90
7564;DHT22;3823;53.586;10.040;2022-12-16T11:16:07;-0.70;99.90
7564;DHT22;3823;53.586;10.040;2022-12-16T11:18:52;-0.80;99.90
7564;DHT22;3823;53.586;10.040;2022-12-16T11:21:36;-0.80;99.90
7564;DHT22;3823;53.586;10.040;2022-12-16T11:24:20;-0.70;99.90
7564;DHT22;3823;53.586;10.040;2022-12-16T11:29:58;-0.70;99.90
7564;DHT22;3823;53.586;10.040;2022-12-16T11:32:53;-0.70;99.90
7564;DHT22;3823;53.586;10.040;2022-12-16T11:35:41;-0.60;99.90
7564;DHT22;3823;53.586;10.040;2022-12-16T11:38:39;-0.60;99.90
7564;DHT22;3823;53.586;10.040;2022-12-16T11:41:30;-0.50;99.90
7564;DHT22;3823;53.586;10.040;2022-12-16T11:44:29;-0.50;99.90
7564;DHT22;3823;53.586;10.040;2022-12-16T11:50:13;-0.50;99.90
7564;DHT22;3823;53.586;10.040;2022-12-16T11:53:00;-0.50;99.90
7564;DHT22;3823;53.586;10.040;2022-12-16T11:55:47;-0.50;99.90
7564;DHT22;3823;53.586;10.040;2022-12-16T11:58:49;-0.60;99.90
7564;DHT22;3823;53.586;10.040;2022-12-16T12:04:22;-0.40;99.90
7564;DHT22;3823;53.586;10.040;2022-12-16T12:07:23;-0.30;99.90
7564;DHT22;3823;53.586;10.040;2022-12-16T12:10:42;-0.30;99.90
7564;DHT22;3823;53.586;10.040;2022-12-16T12:13:40;-0.40;99.90
7564;DHT22;3823;53.586;10.040;2022-12-16T12:20:01;-0.20;99.90
7564;DHT22;3823;53.586;10.040;2022-12-16T12:22:48;-0.10;99.90
7564;DHT22;3823;53.586;10.040;2022-12-16T12:25:52;-0.10;99.90
7564;DHT22;3823;53.586;10.040;2022-12-16T12:41:27;0.10;99.90
7564;DHT22;3823;53.586;10.040;2022-12-16T12:47:28;0.10;99.90
7564;DHT22;3823;53.586;10.040;2022-12-16T12:50:23;0.10;99.90
7564;DHT22;3823;53.586;10.040;2022-12-16T12:53:37;0.20;99.90
7564;DHT22;3823;53.586;10.040;2022-12-16T12:59:24;0.20;99.90
7564;DHT22;3823;53.586;10.040;2022-12-16T13:02:18;0.20;99.90
7564;DHT22;3823;53.586;10.040;2022-12-16T13:05:04;0.30;99.90
7564;DHT22;3823;53.586;10.040;2022-12-16T13:07:49;0.30;99.90
7564;DHT22;3823;53.586;10.040;2022-12-16T13:10:36;0.30;99.90
7564;DHT22;3823;53.586;10.040;2022-12-16T13:13:33;0.30;99.90
7564;DHT22;3823;53.586;10.040;2022-12-16T13:16:56;0.30;99.90
7564;DHT22;3823;53.586;10.040;2022-12-16T13:19:51;0.40;99.90
7564;DHT22;3823;53.586;10.040;2022-12-16T13:22:36;0.40;99.90
7564;DHT22;3823;53.586;10.040;2022-12-16T13:28:33;0.50;99.90
7564;DHT22;3823;53.586;10.040;2022-12-16T13:31:18;0.50;99.90
7564;DHT22;3823;53.586;10.040;2022-12-16T13:37:01;0.30;99.90
7564;DHT22;3823;53.586;10.040;2022-12-16T13:40:05;0.30;99.90
7564;DHT22;3823;53.586;10.040;2022-12-16T13:42:55;0.30;99.90
7564;DHT22;3823;53.586;10.040;2022-12-16T13:46:37;0.20;99.90
7564;DHT22;3823;53.586;10.040;2022-12-16T13:48:48;0.20;99.90
7564;DHT22;3823;53.586;10.040;2022-12-16T13:54:33;0.20;99.90
7564;DHT22;3823;53.586;10.040;2022-12-16T13:57:21;0.20;99.90
7564;DHT22;3823;53.586;10.040;2022-12-16T14:00:17;0.20;99.90
7564;DHT22;3823;53.586;10.040;2022-12-16T14:03:07;0.20;99.90
7564;DHT22;3823;53.586;10.040;2022-12-16T14:05:53;0.10;99.90
7564;DHT22;3823;53.586;10.040;2022-12-16T14:08:39;0.10;99.90
7564;DHT22;3823;53.586;10.040;2022-12-16T14:12:04;0.10;99.90
7564;DHT22;3823;53.586;10.040;2022-12-16T14:15:12;0.10;99.90
7564;DHT22;3823;53.586;10.040;2022-12-16T14:18:05;0.10;99.90
7564;DHT22;3823;53.586;10.040;2022-12-16T14:20:59;0.10;99.90
7564;DHT22;3823;53.586;10.040;2022-12-16T14:24:03;0.10;99.90
7564;DHT22;3823;53.586;10.040;2022-12-16T14:26:50;0.10;99.90
7564;DHT22;3823;53.586;10.040;2022-12-16T14:29:47;0.10;99.90
7564;DHT22;3823;53.586;10.040;2022-12-16T14:32:33;0.10;99.90
7564;DHT22;3823;53.586;10.040;2022-12-16T14:35:20;0.20;99.90
7564;DHT22;3823;53.586;10.040;2022-12-16T14:38:22;0.20;99.90
7564;DHT22;3823;53.586;10.040;2022-12-16T14:41:27;0.10;99.90
7564;DHT22;3823;53.586;10.040;2022-12-16T14:44:22;0.10;99.90
7564;DHT22;3823;53.586;10.040;2022-12-16T14:47:18;0.10;99.90
7564;DHT22;3823;53.586;10.040;2022-12-16T14:50:17;0.10;99.90
7564;DHT22;3823;53.586;10.040;2022-12-16T14:53:19;0.00;99.90
7564;DHT22;3823;53.586;10.040;2022-12-16T14:56:16;0.00;99.90
7564;DHT22;3823;53.586;10.040;2022-12-16T14:59:17;0.00;99.90
7564;DHT22;3823;53.586;10.040;2022-12-16T15:02:20;-0.10;99.90
7564;DHT22;3823;53.586;10.040;2022-12-16T15:05:08;-0.10;99.90
7564;DHT22;3823;53.586;10.040;2022-12-16T15:07:53;-0.10;99.90
7564;DHT22;3823;53.586;10.040;2022-12-16T15:10:37;-0.10;99.90
7564;DHT22;3823;53.586;10.040;2022-12-16T15:13:22;-0.10;99.90
7564;DHT22;3823;53.586;10.040;2022-12-16T15:16:10;-0.10;99.90
7564;DHT22;3823;53.586;10.040;2022-12-16T15:18:59;-0.20;99.90
7564;DHT22;3823;53.586;10.040;2022-12-16T15:21:45;-0.20;99.90
7564;DHT22;3823;53.586;10.040;2022-12-16T15:24:34;-0.20;99.90
7564;DHT22;3823;53.586;10.040;2022-12-16T15:33:32;-0.20;99.90
7564;DHT22;3823;53.586;10.040;2022-12-16T15:36:29;-0.20;99.90
7564;DHT22;3823;53.586;10.040;2022-12-16T15:39:28;-0.30;99.90
7564;DHT22;3823;53.586;10.040;2022-12-16T15:42:28;-0.30;99.90
7564;DHT22;3823;53.586;10.040;2022-12-16T15:45:27;-0.30;99.90
7564;DHT22;3823;53.586;10.040;2022-12-16T15:48:27;-0.30;99.90
7564;DHT22;3823;53.586;10.040;2022-12-16T15:54:20;-0.30;99.90
7564;DHT22;3823;53.586;10.040;2022-12-16T15:57:27;-0.30;99.90
7564;DHT22;3823;53.586;10.040;2022-12-16T16:03:13;-0.30;99.90
7564;DHT22;3823;53.586;10.040;2022-12-16T16:05:58;-0.30;99.90
7564;DHT22;3823;53.586;10.040;2022-12-16T16:08:42;-0.30;99.90
7564;DHT22;3823;53.586;10.040;2022-12-16T16:11:26;-0.20;99.90
7564;DHT22;3823;53.586;10.040;2022-12-16T16:14:10;-0.30;99.90
7564;DHT22;3823;53.586;10.040;2022-12-16T16:16:54;-0.30;99.90
7564;DHT22;3823;53.586;10.040;2022-12-16T16:19:38;-0.40;99.90
7564;DHT22;3823;53.586;10.040;2022-12-16T16:22:22;-0.40;99.90
7564;DHT22;3823;53.586;10.040;2022-12-16T16:25:07;-0.40;99.90
7564;DHT22;3823;53.586;10.040;2022-12-16T16:27:51;-0.40;99.90
7564;DHT22;3823;53.586;10.040;2022-12-16T16:30:36;-0.30;99.90
7564;DHT22;3823;53.586;10.040;2022-12-16T16:33:20;-0.20;99.90
7564;DHT22;3823;53.586;10.040;2022-12-16T16:36:14;-0.20;99.90
7564;DHT22;3823;53.586;10.040;2022-12-16T16:38:59;-0.20;99.90
7564;DHT22;3823;53.586;10.040;2022-12-16T16:41:43;-0.30;99.90
7564;DHT22;3823;53.586;10.040;2022-12-16T16:44:27;-0.40;99.90
7564;DHT22;3823;53.586;10.040;2022-12-16T16:47:15;-0.40;99.90
7564;DHT22;3823;53.586;10.040;2022-12-16T16:50:00;-0.50;99.90
7564;DHT22;3823;53.586;10.040;2022-12-16T16:52:44;-0.60;99.90
7564;DHT22;3823;53.586;10.040;2022-12-16T16:55:28;-0.60;99.90
7564;DHT22;3823;53.586;10.040;2022-12-16T16:58:23;-0.70;99.90
7564;DHT22;3823;53.586;10.040;2022-12-16T17:01:11;-0.60;99.90
7564;DHT22;3823;53.586;10.040;2022-12-16T17:03:56;-0.50;99.90
7564;DHT22;3823;53.586;10.040;2022-12-16T17:06:40;-0.60;99.90
7564;DHT22;3823;53.586;10.040;2022-12-16T17:09:24;-0.60;99.90
7564;DHT22;3823;53.586;10.040;2022-12-16T17:12:29;-0.70;99.90
7564;DHT22;3823;53.586;10.040;2022-12-16T17:17:59;-0.60;99.90
7564;DHT22;3823;53.586;10.040;2022-12-16T17:20:44;-0.50;99.90
7564;DHT22;3823;53.586;10.040;2022-12-16T17:23:28;-0.50;99.90
7564;DHT22;3823;53.586;10.040;2022-12-16T17:26:12;-0.50;99.90
7564;DHT22;3823;53.586;10.040;2022-12-16T17:28:56;-0.50;99.90
7564;DHT22;3823;53.586;10.040;2022-12-16T17:31:40;-0.40;99.90
7564;DHT22;3823;53.586;10.040;2022-12-16T17:34:24;-0.40;99.90
7564;DHT22;3823;53.586;10.040;2022-12-16T17:37:08;-0.40;99.90
7564;DHT22;3823;53.586;10.040;2022-12-16T17:39:55;-0.40;99.90
7564;DHT22;3823;53.586;10.040;2022-12-16T17:56:08;-0.30;99.90
7564;DHT22;3823;53.586;10.040;2022-12-16T17:58:52;-0.30;99.90
7564;DHT22;3823;53.586;10.040;2022-12-16T18:01:36;-0.20;99.90
7564;DHT22;3823;53.586;10.040;2022-12-16T18:04:20;-0.20;99.90
7564;DHT22;3823;53.586;10.040;2022-12-16T18:07:04;-0.20;99.90
7564;DHT22;3823;53.586;10.040;2022-12-16T18:09:48;-0.20;99.90
7564;DHT22;3823;53.586;10.040;2022-12-16T18:12:32;-0.20;99.90
7564;DHT22;3823;53.586;10.040;2022-12-16T18:15:16;-0.20;99.90
7564;DHT22;3823;53.586;10.040;2022-12-16T18:18:00;-0.20;99.90
7564;DHT22;3823;53.586;10.040;2022-12-16T18:20:44;-0.20;99.90
7564;DHT22;3823;53.586;10.040;2022-12-16T18:23:29;-0.20;99.90
7564;DHT22;3823;53.586;10.040;2022-12-16T18:26:14;-0.20;99.90
7564;DHT22;3823;53.586;10.040;2022-12-16T18:28:58;-0.10;99.90
7564;DHT22;3823;53.586;10.040;2022-12-16T18:31:42;-0.10;99.90
7564;DHT22;3823;53.586;10.040;2022-12-16T18:34:26;-0.10;99.90
7564;DHT22;3823;53.586;10.040;2022-12-16T18:37:11;-0.10;99.90
7564;DHT22;3823;53.586;10.040;2022-12-16T18:39:56;-0.10;99.90
7564;DHT22;3823;53.586;10.040;2022-12-16T18:42:41;-0.10;99.90
7564;DHT22;3823;53.586;10.040;2022-12-16T18:45:25;-0.20;99.90
7564;DHT22;3823;53.586;10.040;2022-12-16T18:48:09;-0.10;99.90
7564;DHT22;3823;53.586;10.040;2022-12-16T18:50:57;-0.10;99.90
7564;DHT22;3823;53.586;10.040;2022-12-16T18:53:42;0.00;99.90
7564;DHT22;3823;53.586;10.040;2022-12-16T18:56:26;-0.10;99.90
7564;DHT22;3823;53.586;10.040;2022-12-16T18:59:11;-0.10;99.90
7564;DHT22;3823;53.586;10.040;2022-12-16T19:01:55;-0.10;99.90
7564;DHT22;3823;53.586;10.040;2022-12-16T19:04:39;-0.10;99.90
7564;DHT22;3823;53.586;10.040;2022-12-16T19:07:23;-0.10;99.90
7564;DHT22;3823;53.586;10.040;2022-12-16T19:10:07;-0.10;99.90
7564;DHT22;3823;53.586;10.040;2022-12-16T19:12:58;-0.10;99.90
7564;DHT22;3823;53.586;10.040;2022-12-16T19:15:51;-0.10;99.90
7564;DHT22;3823;53.586;10.040;2022-12-16T19:18:36;-0.10;99.90
7564;DHT22;3823;53.586;10.040;2022-12-16T19:21:20;-0.10;99.90
7564;DHT22;3823;53.586;10.040;2022-12-16T19:24:04;-0.10;99.90
7564;DHT22;3823;53.586;10.040;2022-12-16T19:26:49;-0.10;99.90
7564;DHT22;3823;53.586;10.040;2022-12-16T19:29:33;0.00;99.90
7564;DHT22;3823;53.586;10.040;2022-12-16T19:32:17;0.00;99.90
7564;DHT22;3823;53.586;10.040;2022-12-16T19:35:01;-0.10;99.90